Airfield :







YOU CAN JOIN US ON...

 
LOGIN :

Register | Disclaimer

   EN    FR    IT 

 









Legend :    VFR   Marginal VFR   IFR   Intensive IFR   Very Intensive IFR
Visi :
Ceiling :
>= 8 km
>= 3000ft
5 to 8 km
1000 to 3000 ft
1500m to 5 km
500 to 1000 ft
800 to 1500m
200 to 500 ft
< 800m
< 200 ft
Symbols :   Thunderstorms  Fog  Heavy snow  Heavy precipitations  Wind > 20 kt






- Airport Elevation : 403 ft
- IATA code : YKG


CYAS - Kangirsuk

CURRENT METAR :
  • 281500Z 00000KT 15SM OVC012 M02/M05 A2997 RMK ST8 SLP161

EXPIRED METARs :
  • 281400Z 02007KT 15SM OVC010 M02/M05 A2996 RMK ST8 SLP156
  • 281300Z 36004KT 350V050 15SM OVC009 M03/M05 A2996 RMK ST8 SLP156

TAF AMD TAF CYAS
Valid from the 28 at 14:00 until the 28 at 21:00 UTC


281416Z 2814/2821 02006KT P6SM SCT006 OVC012
TEMPO 2814/2818 4SM -SG -SN BR OVC006
FM281800 06008KT P6SM OVC012 RMK NXT FCST WILL BE ISSUED AT 291345Z
CZUL FIR / North America



MET'MAP, your aeronautical weather chart ! - Copyright ORBIFLY December 2007 - Disclaimer

ORBIFLY MET'MAP TEAM :

Programming & Development : Alexandra Zaïnal
Concept & original design : Baudouin d'Aumeries
Assistance for programming : Marc-Olivier Méhu
Technical & hardware support : Manuel Goepfert

Contact : metmap@orbifly.com




SOURCES & CREDITS :

   NOAA